Main page
METAR-TAF:

METAR-TAF

Airports :

Thomaston-Upson County Airport

Thomaston, Georgia, United States

latitude: 32-57-18N, longitude: 084-15-52W, elevation: 797 ft

Current weather observation

The report was made 24 minutes ago, at 13:15 UTC
Calm wind
Temperature 68°F
Humidity 68%
Pressure 30.17 in. Hg
Visibility: 10 miles
Clear sky

METAR: KOPN 301315Z AUTO 00000KT 10SM CLR 20/14 A3017 RMK AO2

Time: 09:39 (13:39 UTC)


TAF: missing

Weather observations and forecasts of more than 4000 airports (METAR and TAF reports).

The available stations are represented by yellow and red dots on the map.

Hover mouse over dot to see the name of the station.

Then click to see weather observations and forecasts.

To change the map : click on the green buttons with a black cross to zoom in, on the green button with a dash to zoom out, or on the green arrows for adjacent maps.


METAR-TAF: